sensor_id;sensor_type;location;lat;lon;timestamp;pressure;altitude;pressure_sealevel;temperature;humidity
43115;BME280;28727;50.068;14.452;2023-12-14T00:00:41;97992.25;;;8.24;87.86
43115;BME280;28727;50.068;14.452;2023-12-14T00:03:13;97991.41;;;8.23;87.71
43115;BME280;28727;50.068;14.452;2023-12-14T00:05:45;97995.88;;;8.23;87.99
43115;BME280;28727;50.068;14.452;2023-12-14T00:08:17;97992.59;;;8.21;88.06
43115;BME280;28727;50.068;14.452;2023-12-14T00:10:48;97990.59;;;8.23;87.70
43115;BME280;28727;50.068;14.452;2023-12-14T00:13:22;97991.03;;;8.27;88.19
43115;BME280;28727;50.068;14.452;2023-12-14T00:15:54;97995.28;;;8.28;87.71
43115;BME280;28727;50.068;14.452;2023-12-14T00:18:26;98000.38;;;8.29;87.86
43115;BME280;28727;50.068;14.452;2023-12-14T00:20:58;97998.19;;;8.33;87.82
43115;BME280;28727;50.068;14.452;2023-12-14T00:23:29;98002.47;;;8.34;87.24
43115;BME280;28727;50.068;14.452;2023-12-14T00:26:04;98008.38;;;8.36;87.12
43115;BME280;28727;50.068;14.452;2023-12-14T00:28:36;98020.31;;;8.38;87.51
43115;BME280;28727;50.068;14.452;2023-12-14T00:31:08;98014.25;;;8.38;86.99
43115;BME280;28727;50.068;14.452;2023-12-14T00:33:39;98011.34;;;8.33;86.29
43115;BME280;28727;50.068;14.452;2023-12-14T00:36:18;98021.59;;;8.28;86.00
43115;BME280;28727;50.068;14.452;2023-12-14T00:38:50;98028.34;;;8.15;85.84
43115;BME280;28727;50.068;14.452;2023-12-14T00:41:22;98025.81;;;8.07;86.70
43115;BME280;28727;50.068;14.452;2023-12-14T00:43:54;98040.53;;;8.02;86.81
43115;BME280;28727;50.068;14.452;2023-12-14T00:46:26;98043.63;;;8.05;86.74
43115;BME280;28727;50.068;14.452;2023-12-14T00:48:58;98041.34;;;8.02;85.99
43115;BME280;28727;50.068;14.452;2023-12-14T00:51:32;98045.53;;;7.97;86.12
43115;BME280;28727;50.068;14.452;2023-12-14T00:54:04;98042.72;;;7.98;86.62
43115;BME280;28727;50.068;14.452;2023-12-14T00:56:36;98051.72;;;7.89;86.19
43115;BME280;28727;50.068;14.452;2023-12-14T00:59:08;98060.44;;;7.75;86.74
43115;BME280;28727;50.068;14.452;2023-12-14T01:01:40;98062.41;;;7.73;87.49
43115;BME280;28727;50.068;14.452;2023-12-14T01:04:12;98072.09;;;7.72;87.45
43115;BME280;28727;50.068;14.452;2023-12-14T01:06:43;98071.94;;;7.74;87.09
43115;BME280;28727;50.068;14.452;2023-12-14T01:09:15;98068.66;;;7.72;88.02
43115;BME280;28727;50.068;14.452;2023-12-14T01:11:47;98073.19;;;7.78;87.85
43115;BME280;28727;50.068;14.452;2023-12-14T01:14:19;98079.72;;;7.82;87.78
43115;BME280;28727;50.068;14.452;2023-12-14T01:16:51;98075.75;;;7.86;87.83
43115;BME280;28727;50.068;14.452;2023-12-14T01:19:23;98081.25;;;7.91;87.56
43115;BME280;28727;50.068;14.452;2023-12-14T01:21:59;98080.25;;;7.92;87.34
43115;BME280;28727;50.068;14.452;2023-12-14T01:24:31;98086.97;;;7.95;87.03
43115;BME280;28727;50.068;14.452;2023-12-14T01:27:03;98087.41;;;7.98;86.77
43115;BME280;28727;50.068;14.452;2023-12-14T01:29:35;98095.31;;;7.98;87.34
43115;BME280;28727;50.068;14.452;2023-12-14T01:32:07;98101.72;;;7.96;87.28
43115;BME280;28727;50.068;14.452;2023-12-14T01:34:39;98107.81;;;7.96;86.70
43115;BME280;28727;50.068;14.452;2023-12-14T01:37:12;98102.38;;;7.98;86.59
43115;BME280;28727;50.068;14.452;2023-12-14T01:39:44;98104.31;;;7.89;86.99
43115;BME280;28727;50.068;14.452;2023-12-14T01:42:16;98097.31;;;7.81;87.63
43115;BME280;28727;50.068;14.452;2023-12-14T01:44:47;98103.84;;;7.71;87.61
43115;BME280;28727;50.068;14.452;2023-12-14T01:47:19;98100.03;;;7.59;88.06
43115;BME280;28727;50.068;14.452;2023-12-14T01:49:51;98109.91;;;7.57;89.08
43115;BME280;28727;50.068;14.452;2023-12-14T01:52:23;98115.25;;;7.63;88.97
43115;BME280;28727;50.068;14.452;2023-12-14T01:54:55;98116.06;;;7.64;88.99
43115;BME280;28727;50.068;14.452;2023-12-14T01:57:27;98113.28;;;7.65;88.75
43115;BME280;28727;50.068;14.452;2023-12-14T02:00:01;98120.78;;;7.68;88.73
43115;BME280;28727;50.068;14.452;2023-12-14T02:02:35;98122.88;;;7.73;89.01
43115;BME280;28727;50.068;14.452;2023-12-14T02:05:09;98131.50;;;7.81;89.05
43115;BME280;28727;50.068;14.452;2023-12-14T02:07:43;98126.31;;;7.88;88.58
43115;BME280;28727;50.068;14.452;2023-12-14T02:10:14;98138.75;;;7.94;88.44
43115;BME280;28727;50.068;14.452;2023-12-14T02:12:47;98129.84;;;7.95;87.75
43115;BME280;28727;50.068;14.452;2023-12-14T02:15:21;98132.94;;;7.99;88.01
43115;BME280;28727;50.068;14.452;2023-12-14T02:17:53;98136.00;;;8.02;87.70
43115;BME280;28727;50.068;14.452;2023-12-14T02:20:25;98145.09;;;8.00;87.92
43115;BME280;28727;50.068;14.452;2023-12-14T02:22:59;98148.72;;;7.99;87.28
43115;BME280;28727;50.068;14.452;2023-12-14T02:25:35;98150.09;;;7.95;87.34
43115;BME280;28727;50.068;14.452;2023-12-14T02:28:07;98155.88;;;7.90;87.35
43115;BME280;28727;50.068;14.452;2023-12-14T02:30:39;98153.88;;;7.92;87.66
43115;BME280;28727;50.068;14.452;2023-12-14T02:33:12;98151.81;;;7.88;87.49
43115;BME280;28727;50.068;14.452;2023-12-14T02:35:44;98153.13;;;7.83;87.50
43115;BME280;28727;50.068;14.452;2023-12-14T02:38:16;98155.41;;;7.87;87.67
43115;BME280;28727;50.068;14.452;2023-12-14T02:40:48;98161.94;;;7.91;87.71
43115;BME280;28727;50.068;14.452;2023-12-14T02:43:22;98159.41;;;7.82;86.98
43115;BME280;28727;50.068;14.452;2023-12-14T02:45:57;98163.47;;;7.85;87.01
43115;BME280;28727;50.068;14.452;2023-12-14T02:48:37;98159.69;;;7.88;87.45
43115;BME280;28727;50.068;14.452;2023-12-14T02:51:12;98151.81;;;7.88;87.81
43115;BME280;28727;50.068;14.452;2023-12-14T02:53:44;98162.50;;;7.86;87.16
43115;BME280;28727;50.068;14.452;2023-12-14T02:56:16;98167.91;;;7.85;86.65
43115;BME280;28727;50.068;14.452;2023-12-14T02:58:50;98161.50;;;7.87;87.33
43115;BME280;28727;50.068;14.452;2023-12-14T03:01:25;98161.50;;;7.87;86.84
43115;BME280;28727;50.068;14.452;2023-12-14T03:03:57;98172.84;;;7.88;86.60
43115;BME280;28727;50.068;14.452;2023-12-14T03:06:29;98172.19;;;7.86;86.91
43115;BME280;28727;50.068;14.452;2023-12-14T03:09:01;98172.19;;;7.86;87.33
43115;BME280;28727;50.068;14.452;2023-12-14T03:11:33;98176.44;;;7.87;86.63
43115;BME280;28727;50.068;14.452;2023-12-14T03:14:04;98185.16;;;7.87;86.57
43115;BME280;28727;50.068;14.452;2023-12-14T03:16:36;98198.94;;;7.89;86.87
43115;BME280;28727;50.068;14.452;2023-12-14T03:19:08;98193.69;;;7.89;86.51
43115;BME280;28727;50.068;14.452;2023-12-14T03:21:40;98192.31;;;7.93;86.93
43115;BME280;28727;50.068;14.452;2023-12-14T03:24:12;98192.16;;;7.95;86.31
43115;BME280;28727;50.068;14.452;2023-12-14T03:26:44;98195.41;;;7.97;86.16
43115;BME280;28727;50.068;14.452;2023-12-14T03:29:18;98189.69;;;7.93;86.36
43115;BME280;28727;50.068;14.452;2023-12-14T03:31:50;98195.50;;;7.89;86.08
43115;BME280;28727;50.068;14.452;2023-12-14T03:34:23;98204.28;;;7.81;85.83
43115;BME280;28727;50.068;14.452;2023-12-14T03:36:54;98200.91;;;7.72;86.32
43115;BME280;28727;50.068;14.452;2023-12-14T03:39:31;98207.53;;;7.68;87.20
43115;BME280;28727;50.068;14.452;2023-12-14T03:42:03;98211.94;;;7.68;87.21
43115;BME280;28727;50.068;14.452;2023-12-14T03:44:37;98207.41;;;7.62;86.96
43115;BME280;28727;50.068;14.452;2023-12-14T03:47:09;98212.56;;;7.55;87.29
43115;BME280;28727;50.068;14.452;2023-12-14T03:49:41;98209.59;;;7.58;88.06
43115;BME280;28727;50.068;14.452;2023-12-14T03:52:15;98214.47;;;7.61;87.53
43115;BME280;28727;50.068;14.452;2023-12-14T03:54:47;98207.78;;;7.59;87.13
43115;BME280;28727;50.068;14.452;2023-12-14T03:57:18;98208.88;;;7.64;87.42
43115;BME280;28727;50.068;14.452;2023-12-14T03:59:50;98211.94;;;7.68;87.25
43115;BME280;28727;50.068;14.452;2023-12-14T04:02:22;98213.31;;;7.64;86.83
43115;BME280;28727;50.068;14.452;2023-12-14T04:04:54;98217.38;;;7.66;87.08
43115;BME280;28727;50.068;14.452;2023-12-14T04:07:26;98220.66;;;7.68;86.23
43115;BME280;28727;50.068;14.452;2023-12-14T04:09:59;98232.81;;;7.69;86.37
43115;BME280;28727;50.068;14.452;2023-12-14T04:12:31;98230.53;;;7.66;86.33
43115;BME280;28727;50.068;14.452;2023-12-14T04:15:04;98226.44;;;7.64;86.04
43115;BME280;28727;50.068;14.452;2023-12-14T04:17:36;98235.50;;;7.61;86.51
43115;BME280;28727;50.068;14.452;2023-12-14T04:20:09;98242.38;;;7.62;86.71
43115;BME280;28727;50.068;14.452;2023-12-14T04:22:44;98251.47;;;7.60;85.99
43115;BME280;28727;50.068;14.452;2023-12-14T04:25:16;98255.78;;;7.53;86.05
43115;BME280;28727;50.068;14.452;2023-12-14T04:27:48;98255.50;;;7.48;86.08
43115;BME280;28727;50.068;14.452;2023-12-14T04:30:20;98267.16;;;7.45;86.24
43115;BME280;28727;50.068;14.452;2023-12-14T04:32:57;98269.00;;;7.36;86.33
43115;BME280;28727;50.068;14.452;2023-12-14T04:35:32;98268.03;;;7.37;87.12
43115;BME280;28727;50.068;14.452;2023-12-14T04:38:10;98269.66;;;7.38;86.82
43115;BME280;28727;50.068;14.452;2023-12-14T04:40:42;98269.00;;;7.36;86.40
43115;BME280;28727;50.068;14.452;2023-12-14T04:43:16;98277.25;;;7.33;86.72
43115;BME280;28727;50.068;14.452;2023-12-14T04:45:48;98281.03;;;7.31;87.59
43115;BME280;28727;50.068;14.452;2023-12-14T04:48:20;98285.97;;;7.34;86.85
43115;BME280;28727;50.068;14.452;2023-12-14T04:50:54;98288.75;;;7.32;86.64
43115;BME280;28727;50.068;14.452;2023-12-14T04:53:26;98294.19;;;7.31;86.91
43115;BME280;28727;50.068;14.452;2023-12-14T04:55:58;98309.78;;;7.32;86.52
43115;BME280;28727;50.068;14.452;2023-12-14T04:58:29;98301.72;;;7.34;86.96
43115;BME280;28727;50.068;14.452;2023-12-14T05:01:01;98300.75;;;7.35;86.67
43115;BME280;28727;50.068;14.452;2023-12-14T05:03:34;98307.63;;;7.36;86.13
43115;BME280;28727;50.068;14.452;2023-12-14T05:06:06;98317.13;;;7.37;86.13
43115;BME280;28727;50.068;14.452;2023-12-14T05:08:39;98322.38;;;7.37;86.21
43115;BME280;28727;50.068;14.452;2023-12-14T05:11:14;98321.38;;;7.38;85.75
43115;BME280;28727;50.068;14.452;2023-12-14T05:13:46;98321.38;;;7.38;85.48
43115;BME280;28727;50.068;14.452;2023-12-14T05:16:18;98334.69;;;7.36;85.60
43115;BME280;28727;50.068;14.452;2023-12-14T05:18:50;98333.91;;;7.36;85.56
43115;BME280;28727;50.068;14.452;2023-12-14T05:21:23;98337.69;;;7.33;85.63
43115;BME280;28727;50.068;14.452;2023-12-14T05:23:59;98348.50;;;7.30;85.34
43115;BME280;28727;50.068;14.452;2023-12-14T05:26:31;98345.44;;;7.27;85.55
43115;BME280;28727;50.068;14.452;2023-12-14T05:29:03;98350.84;;;7.25;84.98
43115;BME280;28727;50.068;14.452;2023-12-14T05:31:35;98349.91;;;7.18;85.64
43115;BME280;28727;50.068;14.452;2023-12-14T05:34:09;98355.81;;;7.20;85.67
43115;BME280;28727;50.068;14.452;2023-12-14T05:36:41;98354.97;;;7.20;86.09
43115;BME280;28727;50.068;14.452;2023-12-14T05:39:13;98360.22;;;7.20;85.85
43115;BME280;28727;50.068;14.452;2023-12-14T05:41:45;98357.59;;;7.20;85.57
43115;BME280;28727;50.068;14.452;2023-12-14T05:44:17;98370.94;;;7.18;85.67
43115;BME280;28727;50.068;14.452;2023-12-14T05:46:49;98365.69;;;7.18;85.55
43115;BME280;28727;50.068;14.452;2023-12-14T05:49:21;98379.78;;;7.17;85.71
43115;BME280;28727;50.068;14.452;2023-12-14T05:51:53;98384.22;;;7.17;85.47
43115;BME280;28727;50.068;14.452;2023-12-14T05:54:25;98391.13;;;7.18;85.16
43115;BME280;28727;50.068;14.452;2023-12-14T05:56:57;98405.41;;;7.15;85.01
43115;BME280;28727;50.068;14.452;2023-12-14T05:59:29;98411.16;;;7.11;85.44
43115;BME280;28727;50.068;14.452;2023-12-14T06:02:01;98413.78;;;7.11;85.66
43115;BME280;28727;50.068;14.452;2023-12-14T06:04:33;98421.84;;;7.09;85.50
43115;BME280;28727;50.068;14.452;2023-12-14T06:07:05;98423.63;;;7.09;85.92
43115;BME280;28727;50.068;14.452;2023-12-14T06:09:39;98421.00;;;7.09;85.40
43115;BME280;28727;50.068;14.452;2023-12-14T06:12:11;98423.78;;;7.07;85.76
43115;BME280;28727;50.068;14.452;2023-12-14T06:14:43;98427.44;;;7.06;85.53
43115;BME280;28727;50.068;14.452;2023-12-14T06:17:16;98437.94;;;7.06;85.95
43115;BME280;28727;50.068;14.452;2023-12-14T06:19:48;98440.56;;;7.06;85.37
43115;BME280;28727;50.068;14.452;2023-12-14T06:22:20;98442.38;;;7.06;85.63
43115;BME280;28727;50.068;14.452;2023-12-14T06:24:52;98446.78;;;7.05;85.29
43115;BME280;28727;50.068;14.452;2023-12-14T06:27:24;98453.69;;;6.98;85.22
43115;BME280;28727;50.068;14.452;2023-12-14T06:29:58;98457.34;;;6.89;85.15
43115;BME280;28727;50.068;14.452;2023-12-14T06:32:29;98457.81;;;6.84;86.12
43115;BME280;28727;50.068;14.452;2023-12-14T06:35:02;98458.47;;;6.86;86.26
43115;BME280;28727;50.068;14.452;2023-12-14T06:37:33;98462.25;;;6.92;86.45
43115;BME280;28727;50.068;14.452;2023-12-14T06:40:08;98465.19;;;6.97;86.35
43115;BME280;28727;50.068;14.452;2023-12-14T06:42:40;98470.13;;;7.00;86.01
43115;BME280;28727;50.068;14.452;2023-12-14T06:45:13;98467.13;;;7.03;86.23
43115;BME280;28727;50.068;14.452;2023-12-14T06:47:45;98472.38;;;7.03;85.57
43115;BME280;28727;50.068;14.452;2023-12-14T06:50:18;98483.56;;;7.05;86.13
43115;BME280;28727;50.068;14.452;2023-12-14T06:52:50;98486.03;;;7.07;85.64
43115;BME280;28727;50.068;14.452;2023-12-14T06:55:22;98483.19;;;7.08;85.86
43115;BME280;28727;50.068;14.452;2023-12-14T06:57:55;98488.47;;;7.08;85.18
43115;BME280;28727;50.068;14.452;2023-12-14T07:00:26;98488.16;;;7.03;85.44
43115;BME280;28727;50.068;14.452;2023-12-14T07:03:04;98498.16;;;6.99;85.89
43115;BME280;28727;50.068;14.452;2023-12-14T07:05:39;98503.22;;;7.01;85.89
43115;BME280;28727;50.068;14.452;2023-12-14T07:08:11;98499.47;;;7.04;85.73
43115;BME280;28727;50.068;14.452;2023-12-14T07:10:44;98514.09;;;7.06;86.11
43115;BME280;28727;50.068;14.452;2023-12-14T07:13:16;98509.31;;;7.10;86.03
43115;BME280;28727;50.068;14.452;2023-12-14T07:15:48;98511.25;;;7.16;86.31
43115;BME280;28727;50.068;14.452;2023-12-14T07:18:20;98516.00;;;7.20;86.30
43115;BME280;28727;50.068;14.452;2023-12-14T07:20:52;98516.00;;;7.20;85.72
43115;BME280;28727;50.068;14.452;2023-12-14T07:23:25;98522.91;;;7.21;85.14
43115;BME280;28727;50.068;14.452;2023-12-14T07:25:58;98526.34;;;7.22;85.33
43115;BME280;28727;50.068;14.452;2023-12-14T07:28:34;98538.00;;;7.19;85.11
43115;BME280;28727;50.068;14.452;2023-12-14T07:31:07;98541.28;;;7.21;85.13
43115;BME280;28727;50.068;14.452;2023-12-14T07:33:40;98541.44;;;7.20;85.17
43115;BME280;28727;50.068;14.452;2023-12-14T07:36:11;98554.78;;;7.18;85.05
43115;BME280;28727;50.068;14.452;2023-12-14T07:38:43;98553.94;;;7.18;85.43
43115;BME280;28727;50.068;14.452;2023-12-14T07:41:18;98551.13;;;7.19;85.51
43115;BME280;28727;50.068;14.452;2023-12-14T07:43:49;98557.72;;;7.23;85.26
43115;BME280;28727;50.068;14.452;2023-12-14T07:46:21;98560.34;;;7.23;85.06
43115;BME280;28727;50.068;14.452;2023-12-14T07:48:53;98565.59;;;7.23;84.72
43115;BME280;28727;50.068;14.452;2023-12-14T07:51:26;98572.50;;;7.24;84.38
43115;BME280;28727;50.068;14.452;2023-12-14T07:53:59;98579.03;;;7.20;84.56
43115;BME280;28727;50.068;14.452;2023-12-14T07:56:31;98567.56;;;7.21;85.04
43115;BME280;28727;50.068;14.452;2023-12-14T07:59:07;98570.84;;;7.23;84.70
43115;BME280;28727;50.068;14.452;2023-12-14T08:01:40;98579.19;;;7.27;85.27
43115;BME280;28727;50.068;14.452;2023-12-14T08:04:14;98588.22;;;7.32;85.11
43115;BME280;28727;50.068;14.452;2023-12-14T08:06:46;98591.34;;;7.28;84.95
43115;BME280;28727;50.068;14.452;2023-12-14T08:09:18;98601.38;;;7.16;84.83
43115;BME280;28727;50.068;14.452;2023-12-14T08:11:53;98605.78;;;7.08;85.61
43115;BME280;28727;50.068;14.452;2023-12-14T08:14:24;98608.75;;;7.05;85.53
43115;BME280;28727;50.068;14.452;2023-12-14T08:16:56;98620.09;;;7.05;85.67
43115;BME280;28727;50.068;14.452;2023-12-14T08:19:28;98616.00;;;7.11;85.59
43115;BME280;28727;50.068;14.452;2023-12-14T08:22:00;98622.03;;;7.19;85.59
43115;BME280;28727;50.068;14.452;2023-12-14T08:24:32;98623.03;;;7.26;85.24
43115;BME280;28727;50.068;14.452;2023-12-14T08:27:04;98622.72;;;7.29;85.15
43115;BME280;28727;50.068;14.452;2023-12-14T08:29:36;98629.94;;;7.35;85.38
43115;BME280;28727;50.068;14.452;2023-12-14T08:32:08;98630.41;;;7.39;85.50
43115;BME280;28727;50.068;14.452;2023-12-14T08:34:40;98631.22;;;7.39;85.25
43115;BME280;28727;50.068;14.452;2023-12-14T08:37:12;98638.28;;;7.39;84.89
43115;BME280;28727;50.068;14.452;2023-12-14T08:39:47;98645.19;;;7.40;85.39
43115;BME280;28727;50.068;14.452;2023-12-14T08:42:19;98645.03;;;7.42;85.72
43115;BME280;28727;50.068;14.452;2023-12-14T08:44:51;98648.13;;;7.53;85.51
43115;BME280;28727;50.068;14.452;2023-12-14T08:47:25;98664.22;;;7.58;85.32
43115;BME280;28727;50.068;14.452;2023-12-14T08:49:57;98668.81;;;7.64;84.86
43115;BME280;28727;50.068;14.452;2023-12-14T08:52:29;98668.63;;;7.74;84.35
43115;BME280;28727;50.068;14.452;2023-12-14T08:55:01;98671.88;;;7.84;84.35
43115;BME280;28727;50.068;14.452;2023-12-14T08:57:35;98676.81;;;7.87;83.72
43115;BME280;28727;50.068;14.452;2023-12-14T09:00:11;98677.28;;;7.91;82.92
43115;BME280;28727;50.068;14.452;2023-12-14T09:02:44;98683.03;;;7.94;82.99
43115;BME280;28727;50.068;14.452;2023-12-14T09:05:18;98685.16;;;7.91;82.76
43115;BME280;28727;50.068;14.452;2023-12-14T09:07:52;98686.34;;;7.88;83.60
43115;BME280;28727;50.068;14.452;2023-12-14T09:10:27;98684.03;;;7.85;82.49
43115;BME280;28727;50.068;14.452;2023-12-14T09:12:59;98685.69;;;7.86;83.47
43115;BME280;28727;50.068;14.452;2023-12-14T09:15:35;98692.25;;;7.90;82.90
43115;BME280;28727;50.068;14.452;2023-12-14T09:18:09;98693.22;;;7.97;83.24
43115;BME280;28727;50.068;14.452;2023-12-14T09:20:41;98701.25;;;7.96;82.77
43115;BME280;28727;50.068;14.452;2023-12-14T09:23:14;98706.03;;;8.00;82.56
43115;BME280;28727;50.068;14.452;2023-12-14T09:25:46;98707.31;;;8.12;82.06
43115;BME280;28727;50.068;14.452;2023-12-14T09:28:18;98715.84;;;8.22;82.27
43115;BME280;28727;50.068;14.452;2023-12-14T09:30:50;98717.47;;;8.32;82.38
43115;BME280;28727;50.068;14.452;2023-12-14T09:33:21;98717.63;;;8.38;81.87
43115;BME280;28727;50.068;14.452;2023-12-14T09:35:54;98717.91;;;8.51;82.12
43115;BME280;28727;50.068;14.452;2023-12-14T09:38:25;98721.94;;;8.62;81.95
43115;BME280;28727;50.068;14.452;2023-12-14T09:40:57;98732.22;;;8.80;81.54
43115;BME280;28727;50.068;14.452;2023-12-14T09:43:30;98725.34;;;9.01;81.26
43115;BME280;28727;50.068;14.452;2023-12-14T09:46:02;98728.81;;;9.25;79.91
43115;BME280;28727;50.068;14.452;2023-12-14T09:48:34;98742.53;;;9.43;78.80
43115;BME280;28727;50.068;14.452;2023-12-14T09:51:07;98739.66;;;9.53;78.10
43115;BME280;28727;50.068;14.452;2023-12-14T09:53:39;98751.16;;;9.60;78.07
43115;BME280;28727;50.068;14.452;2023-12-14T09:56:11;98749.97;;;9.62;77.40
43115;BME280;28727;50.068;14.452;2023-12-14T09:58:43;98753.47;;;9.55;77.03
43115;BME280;28727;50.068;14.452;2023-12-14T10:01:24;98749.44;;;9.44;76.61
43115;BME280;28727;50.068;14.452;2023-12-14T10:04:11;98760.66;;;9.46;76.88
43115;BME280;28727;50.068;14.452;2023-12-14T10:06:45;98761.28;;;9.48;77.43
43115;BME280;28727;50.068;14.452;2023-12-14T10:09:22;98756.72;;;9.42;77.27
43115;BME280;28727;50.068;14.452;2023-12-14T10:12:03;98749.16;;;9.39;77.74
43115;BME280;28727;50.068;14.452;2023-12-14T10:14:41;98752.63;;;9.39;77.73
43115;BME280;28727;50.068;14.452;2023-12-14T10:17:21;98748.16;;;9.40;78.02
43115;BME280;28727;50.068;14.452;2023-12-14T10:19:53;98749.59;;;9.42;77.85
43115;BME280;28727;50.068;14.452;2023-12-14T10:22:28;98755.00;;;9.49;77.85
43115;BME280;28727;50.068;14.452;2023-12-14T10:25:00;98756.66;;;9.50;77.60
43115;BME280;28727;50.068;14.452;2023-12-14T10:27:32;98759.56;;;9.55;77.63
43115;BME280;28727;50.068;14.452;2023-12-14T10:30:06;98761.03;;;9.58;77.68
43115;BME280;28727;50.068;14.452;2023-12-14T10:32:39;98760.75;;;9.53;78.04
43115;BME280;28727;50.068;14.452;2023-12-14T10:35:18;98770.50;;;9.52;78.29
43115;BME280;28727;50.068;14.452;2023-12-14T10:37:52;98765.44;;;9.42;77.48
43115;BME280;28727;50.068;14.452;2023-12-14T10:40:24;98772.28;;;9.29;77.35
43115;BME280;28727;50.068;14.452;2023-12-14T10:43:01;98783.38;;;9.24;77.29
43115;BME280;28727;50.068;14.452;2023-12-14T10:45:38;98785.69;;;9.19;77.49
43115;BME280;28727;50.068;14.452;2023-12-14T10:48:10;98785.06;;;9.17;77.76
43115;BME280;28727;50.068;14.452;2023-12-14T10:50:46;98795.75;;;9.16;77.47
43115;BME280;28727;50.068;14.452;2023-12-14T10:53:20;98794.09;;;9.15;77.68
43115;BME280;28727;50.068;14.452;2023-12-14T10:55:53;98799.38;;;9.15;77.64
43115;BME280;28727;50.068;14.452;2023-12-14T10:58:26;98802.97;;;9.22;77.63
43115;BME280;28727;50.068;14.452;2023-12-14T11:00:59;98806.56;;;9.29;77.67
43115;BME280;28727;50.068;14.452;2023-12-14T11:03:33;98808.84;;;9.32;77.11
43115;BME280;28727;50.068;14.452;2023-12-14T11:09:07;98818.41;;;9.25;76.55
43115;BME280;28727;50.068;14.452;2023-12-14T11:12:00;98816.16;;;9.22;76.89
43115;BME280;28727;50.068;14.452;2023-12-14T11:14:35;98820.44;;;9.23;76.19
43115;BME280;28727;50.068;14.452;2023-12-14T11:17:07;98816.38;;;9.12;76.58
43115;BME280;28727;50.068;14.452;2023-12-14T11:19:41;98815.34;;;9.13;76.56
43115;BME280;28727;50.068;14.452;2023-12-14T11:22:23;98825.19;;;9.19;76.25
43115;BME280;28727;50.068;14.452;2023-12-14T11:24:55;98821.41;;;9.22;75.92
43115;BME280;28727;50.068;14.452;2023-12-14T11:27:30;98824.88;;;9.22;75.94
43115;BME280;28727;50.068;14.452;2023-12-14T11:30:04;98830.16;;;9.22;75.71
43115;BME280;28727;50.068;14.452;2023-12-14T11:32:36;98829.97;;;9.24;75.93
43115;BME280;28727;50.068;14.452;2023-12-14T11:35:08;98835.25;;;9.24;75.54
43115;BME280;28727;50.068;14.452;2023-12-14T11:37:42;98836.56;;;9.20;75.88
43115;BME280;28727;50.068;14.452;2023-12-14T11:40:18;98837.38;;;9.20;75.18
43115;BME280;28727;50.068;14.452;2023-12-14T11:42:59;98836.94;;;9.17;75.05
43115;BME280;28727;50.068;14.452;2023-12-14T11:45:31;98858.00;;;9.17;75.07
43115;BME280;28727;50.068;14.452;2023-12-14T11:48:04;98853.13;;;9.06;74.65
43115;BME280;28727;50.068;14.452;2023-12-14T11:50:38;98853.63;;;9.01;74.84
43115;BME280;28727;50.068;14.452;2023-12-14T11:53:10;98853.81;;;8.99;75.14
43115;BME280;28727;50.068;14.452;2023-12-14T11:55:44;98855.13;;;8.95;74.91
43115;BME280;28727;50.068;14.452;2023-12-14T11:58:16;98855.81;;;8.89;74.91
43115;BME280;28727;50.068;14.452;2023-12-14T12:00:48;98854.66;;;8.92;75.10
43115;BME280;28727;50.068;14.452;2023-12-14T12:03:20;98854.19;;;8.88;75.84
43115;BME280;28727;50.068;14.452;2023-12-14T12:05:52;98858.78;;;8.86;74.86
43115;BME280;28727;50.068;14.452;2023-12-14T12:08:25;98856.66;;;8.82;74.71
43115;BME280;28727;50.068;14.452;2023-12-14T12:10:57;98862.91;;;8.81;75.04
43115;BME280;28727;50.068;14.452;2023-12-14T12:13:29;98863.22;;;8.86;74.79
43115;BME280;28727;50.068;14.452;2023-12-14T12:16:03;98867.50;;;8.87;74.70
43115;BME280;28727;50.068;14.452;2023-12-14T12:18:35;98867.03;;;8.83;75.12
43115;BME280;28727;50.068;14.452;2023-12-14T12:21:13;98867.19;;;8.82;75.59
43115;BME280;28727;50.068;14.452;2023-12-14T12:23:45;98876.75;;;8.83;74.62
43115;BME280;28727;50.068;14.452;2023-12-14T12:26:20;98870.16;;;8.79;74.61
43115;BME280;28727;50.068;14.452;2023-12-14T12:28:51;98877.22;;;8.78;74.60
43115;BME280;28727;50.068;14.452;2023-12-14T12:31:24;98884.31;;;8.78;74.77
43115;BME280;28727;50.068;14.452;2023-12-14T12:33:55;98880.38;;;8.74;74.94
43115;BME280;28727;50.068;14.452;2023-12-14T12:36:28;98886.81;;;8.71;74.39
43115;BME280;28727;50.068;14.452;2023-12-14T12:39:00;98889.63;;;8.70;74.84
43115;BME280;28727;50.068;14.452;2023-12-14T12:41:32;98885.34;;;8.69;75.07
43115;BME280;28727;50.068;14.452;2023-12-14T12:44:13;98894.38;;;8.66;74.87
43115;BME280;28727;50.068;14.452;2023-12-14T12:46:45;98905.56;;;8.60;75.04
43115;BME280;28727;50.068;14.452;2023-12-14T12:49:31;98898.84;;;8.57;74.92
43115;BME280;28727;50.068;14.452;2023-12-14T12:52:04;98908.91;;;8.54;74.80
43115;BME280;28727;50.068;14.452;2023-12-14T12:54:36;98913.81;;;8.57;75.14
43115;BME280;28727;50.068;14.452;2023-12-14T12:57:08;98905.75;;;8.58;74.81
43115;BME280;28727;50.068;14.452;2023-12-14T12:59:39;98912.31;;;8.62;74.95
43115;BME280;28727;50.068;14.452;2023-12-14T13:02:11;98923.19;;;8.59;74.87
43115;BME280;28727;50.068;14.452;2023-12-14T13:04:48;98920.88;;;8.65;75.47
43115;BME280;28727;50.068;14.452;2023-12-14T13:07:29;98926.31;;;8.71;74.93
43115;BME280;28727;50.068;14.452;2023-12-14T13:10:21;98931.75;;;8.70;74.55
43115;BME280;28727;50.068;14.452;2023-12-14T13:13:04;98928.59;;;8.66;74.92
43115;BME280;28727;50.068;14.452;2023-12-14T13:15:39;98934.38;;;8.61;74.97
43115;BME280;28727;50.068;14.452;2023-12-14T13:18:11;98932.25;;;8.65;74.82
43115;BME280;28727;50.068;14.452;2023-12-14T13:20:42;98944.91;;;8.61;75.43
43115;BME280;28727;50.068;14.452;2023-12-14T13:23:14;98948.19;;;8.63;75.40
43115;BME280;28727;50.068;14.452;2023-12-14T13:25:46;98946.72;;;8.69;75.68
43115;BME280;28727;50.068;14.452;2023-12-14T13:28:22;98946.03;;;8.67;75.13
43115;BME280;28727;50.068;14.452;2023-12-14T13:30:55;98945.72;;;8.70;75.23
43115;BME280;28727;50.068;14.452;2023-12-14T13:33:27;98958.88;;;8.78;75.36